Time;durP1;ratioP1;P1;durP2;ratioP2;P2;SDS_P1;SDS_P2;PMS_P1;PMS_P2;Temp;Humidity;BMP_temperature;BMP_pressure;BME280_temperature;BME280_humidity;BME280_pressure;Samples;Min_cycle;Max_cycle;Signal;HPM_P1;HPM_P2
2021/11/29 00:04:54;;;;;;;37.70;13.23;;;;;0.40;99995.00;;;;10504680;28;20192;-80
2021/11/29 00:09:56;;;;;;;36.07;17.03;;;;;0.40;99995.00;;;;10481640;28;20192;-80
2021/11/29 00:14:58;;;;;;;43.97;18.17;;;;;0.40;100001.00;;;;10480878;28;20281;-80
2021/11/29 00:20:01;;;;;;;36.93;18.47;;;;;0.40;100011.00;;;;10486449;28;20242;-79
2021/11/29 00:25:04;;;;;;;48.67;19.57;;;;;0.30;100004.00;;;;10501056;28;20193;-80
2021/11/29 00:30:09;;;;;;;47.67;20.00;;;;;0.30;100010.00;;;;10487598;28;20227;-79
2021/11/29 00:35:12;;;;;;;37.80;18.67;;;;;0.30;100017.00;;;;10492772;28;20220;-80
2021/11/29 00:40:14;;;;;;;50.60;20.83;;;;;0.20;100018.00;;;;10474322;28;20738;-79
2021/11/29 00:45:16;;;;;;;47.67;20.23;;;;;0.20;100030.00;;;;10474259;28;20723;-79
2021/11/29 00:50:20;;;;;;;42.73;18.17;;;;;0.20;100026.00;;;;10453715;28;20204;-79
2021/11/29 00:55:23;;;;;;;35.50;17.93;;;;;0.30;100029.00;;;;10483612;28;20308;-80
2021/11/29 01:00:27;;;;;;;41.90;17.63;;;;;0.30;100022.00;;;;10502426;28;20263;-80
2021/11/29 01:05:30;;;;;;;34.77;16.90;;;;;0.30;100022.00;;;;10510962;28;20228;-80
2021/11/29 01:10:33;;;;;;;37.67;16.13;;;;;0.20;100028.00;;;;10493788;28;20264;-79
2021/11/29 01:15:37;;;;;;;31.83;15.80;;;;;0.10;100032.00;;;;10493420;28;20224;-79
2021/11/29 01:20:42;;;;;;;30.90;16.43;;;;;0.00;100047.00;;;;10463225;28;20652;-79
2021/11/29 01:25:44;;;;;;;32.37;15.00;;;;;0.00;100051.00;;;;10479416;28;20205;-79
2021/11/29 01:30:45;;;;;;;37.20;17.37;;;;;0.00;100056.00;;;;10466878;28;20209;-79
2021/11/29 01:35:47;;;;;;;33.50;16.00;;;;;0.00;100060.00;;;;10473038;28;20220;-79
2021/11/29 01:40:49;;;;;;;28.37;13.90;;;;;0.00;100068.00;;;;10475987;28;20205;-79
2021/11/29 01:45:54;;;;;;;22.43;14.03;;;;;0.10;100060.00;;;;10485427;28;20595;-79
2021/11/29 01:50:59;;;;;;;26.03;14.50;;;;;0.10;100082.00;;;;10480007;28;20250;-79
2021/11/29 01:56:01;;;;;;;25.23;14.80;;;;;0.20;100086.00;;;;10489117;28;20219;-79
2021/11/29 02:01:13;;;;;;;32.13;14.03;;;;;0.10;100076.00;;;;10493502;28;20261;-80
2021/11/29 02:06:16;;;;;;;24.37;14.37;;;;;0.10;100084.00;;;;10460850;28;20197;-80
2021/11/29 02:11:19;;;;;;;23.00;13.03;;;;;0.00;100088.00;;;;10482587;28;20200;-80
2021/11/29 02:16:21;;;;;;;30.03;15.57;;;;;0.00;100093.00;;;;10484616;28;20197;-80
2021/11/29 02:21:30;;;;;;;24.03;15.00;;;;;0.10;100087.00;;;;10488642;28;20208;-80
2021/11/29 02:26:35;;;;;;;23.73;14.63;;;;;0.10;100088.00;;;;10508572;28;20250;-80
2021/11/29 02:31:43;;;;;;;27.40;16.27;;;;;0.10;100103.00;;;;10474310;28;20221;-80
2021/11/29 02:36:49;;;;;;;26.97;15.37;;;;;0.00;100082.00;;;;10507429;28;20199;-80
2021/11/29 02:41:54;;;;;;;24.77;14.67;;;;;0.00;100100.00;;;;10470824;28;20299;-80
2021/11/29 02:46:56;;;;;;;22.33;15.27;;;;;0.00;100089.00;;;;10480194;28;20204;-80
2021/11/29 02:52:04;;;;;;;23.87;15.87;;;;;0.00;100093.00;;;;10486051;28;20258;-80
2021/11/29 02:57:11;;;;;;;20.73;15.60;;;;;0.00;100084.00;;;;10490362;28;20274;-80
2021/11/29 03:02:19;;;;;;;20.87;14.20;;;;;0.00;100082.00;;;;10461365;28;20579;-79
2021/11/29 03:07:22;;;;;;;19.07;13.93;;;;;0.00;100083.00;;;;10471683;28;20197;-80
2021/11/29 03:12:24;;;;;;;21.47;15.37;;;;;0.00;100096.00;;;;10489759;28;20228;-79
2021/11/29 03:17:26;;;;;;;24.30;14.53;;;;;-0.10;100092.00;;;;10489721;28;20664;-80
2021/11/29 03:22:28;;;;;;;24.97;15.07;;;;;-0.10;100104.00;;;;10507125;28;20266;-79
2021/11/29 03:27:35;;;;;;;18.40;12.83;;;;;-0.10;100114.00;;;;10484138;28;20189;-79
2021/11/29 03:32:38;;;;;;;21.33;13.20;;;;;-0.20;100111.00;;;;10489420;28;20277;-80
2021/11/29 03:37:40;;;;;;;17.50;12.10;;;;;-0.20;100122.00;;;;10438791;28;20210;-79
2021/11/29 03:42:42;;;;;;;17.20;12.53;;;;;-0.30;100130.00;;;;10497997;28;20575;-79
2021/11/29 03:47:44;;;;;;;21.23;11.83;;;;;-0.30;100144.00;;;;10474133;28;20235;-79
2021/11/29 03:52:46;;;;;;;24.70;13.87;;;;;-0.10;100145.00;;;;10488408;28;20217;-79
2021/11/29 03:57:48;;;;;;;23.67;13.53;;;;;0.10;100171.00;;;;10462797;28;20204;-79
2021/11/29 04:02:50;;;;;;;30.57;14.40;;;;;0.10;100178.00;;;;10470579;28;20223;-79
2021/11/29 04:07:52;;;;;;;26.73;13.23;;;;;0.20;100195.00;;;;10479916;28;20203;-79
2021/11/29 04:12:54;;;;;;;30.20;14.70;;;;;0.30;100200.00;;;;10488257;28;20221;-79
2021/11/29 04:17:56;;;;;;;27.63;15.13;;;;;0.30;100201.00;;;;10486981;28;20655;-79
2021/11/29 04:22:58;;;;;;;29.37;17.60;;;;;0.40;100209.00;;;;10459593;28;20228;-80
2021/11/29 04:28:01;;;;;;;28.93;17.07;;;;;0.50;100225.00;;;;10461487;28;20614;-81
2021/11/29 04:33:03;;;;;;;29.37;19.67;;;;;0.50;100216.00;;;;10467187;28;20218;-79
2021/11/29 04:38:05;;;;;;;30.10;18.73;;;;;0.50;100211.00;;;;10484204;28;20205;-81
2021/11/29 04:43:07;;;;;;;31.57;19.30;;;;;0.60;100200.00;;;;10489040;28;20201;-81
2021/11/29 04:48:09;;;;;;;30.07;19.07;;;;;0.60;100215.00;;;;10505545;28;20204;-81
2021/11/29 04:53:11;;;;;;;34.93;19.13;;;;;0.70;100220.00;;;;10471711;28;20561;-81
2021/11/29 04:58:13;;;;;;;26.97;16.93;;;;;0.70;100220.00;;;;10499307;28;20189;-81
2021/11/29 05:03:15;;;;;;;26.00;16.57;;;;;0.70;100215.00;;;;10472320;28;20664;-81
2021/11/29 05:08:16;;;;;;;23.93;16.37;;;;;0.70;100215.00;;;;10482188;28;20201;-81
2021/11/29 05:13:20;;;;;;;23.97;15.50;;;;;0.70;100206.00;;;;10483105;28;20311;-81
2021/11/29 05:18:22;;;;;;;24.80;15.47;;;;;0.70;100207.00;;;;10470722;28;20231;-81
2021/11/29 05:23:24;;;;;;;32.27;15.97;;;;;0.60;100214.00;;;;10462112;28;20204;-81
2021/11/29 05:28:26;;;;;;;34.00;16.60;;;;;0.50;100220.00;;;;10500537;28;20194;-80
2021/11/29 05:33:28;;;;;;;55.70;17.87;;;;;0.40;100224.00;;;;10482517;28;20246;-81
2021/11/29 05:38:30;;;;;;;50.90;16.63;;;;;0.20;100226.00;;;;10458456;28;20567;-80
2021/11/29 05:43:32;;;;;;;33.40;12.90;;;;;0.20;100224.00;;;;10495100;28;20800;-80
2021/11/29 05:48:34;;;;;;;30.67;13.30;;;;;0.20;100235.00;;;;10463016;28;20228;-81
2021/11/29 05:53:36;;;;;;;31.43;12.90;;;;;0.20;100246.00;;;;10494742;28;20307;-80
2021/11/29 05:58:39;;;;;;;30.93;13.27;;;;;0.30;100245.00;;;;10478936;28;20203;-80
2021/11/29 06:03:41;;;;;;;21.93;13.20;;;;;0.30;100252.00;;;;10464454;28;20207;-80
2021/11/29 06:08:43;;;;;;;20.50;12.87;;;;;0.50;100255.00;;;;10493915;28;20201;-80
2021/11/29 06:13:45;;;;;;;18.50;11.77;;;;;0.50;100263.00;;;;10493407;28;20691;-80
2021/11/29 06:18:47;;;;;;;21.03;12.40;;;;;0.50;100268.00;;;;10493051;28;20204;-80
2021/11/29 06:23:49;;;;;;;16.27;10.90;;;;;0.50;100284.00;;;;10491806;28;20208;-80
2021/11/29 06:28:51;;;;;;;15.37;11.50;;;;;0.50;100282.00;;;;10460742;28;20218;-81
2021/11/29 06:33:53;;;;;;;13.30;10.33;;;;;0.50;100281.00;;;;10484792;28;20228;-80
2021/11/29 06:38:57;;;;;;;16.07;10.17;;;;;0.50;100297.00;;;;10507524;28;20193;-80
2021/11/29 06:43:59;;;;;;;15.10;10.83;;;;;0.50;100287.00;;;;10505040;28;20200;-80
2021/11/29 06:49:02;;;;;;;15.13;10.00;;;;;0.60;100290.00;;;;10469603;28;20673;-80
2021/11/29 06:54:04;;;;;;;15.33;10.73;;;;;0.70;100307.00;;;;10498569;28;20213;-80
2021/11/29 06:59:06;;;;;;;20.37;12.27;;;;;0.80;100321.00;;;;10509072;28;20200;-80
2021/11/29 07:04:08;;;;;;;20.00;14.03;;;;;0.90;100346.00;;;;10453401;28;20204;-80
2021/11/29 07:09:10;;;;;;;23.20;13.47;;;;;0.90;100356.00;;;;10492616;28;20250;-81
2021/11/29 07:14:13;;;;;;;16.10;11.63;;;;;1.00;100372.00;;;;10485963;27;20262;-80
2021/11/29 07:19:16;;;;;;;16.23;11.10;;;;;1.00;100380.00;;;;10488353;28;20221;-80
2021/11/29 07:24:18;;;;;;;17.30;11.20;;;;;1.00;100355.00;;;;10490635;27;20663;-82
2021/11/29 07:29:21;;;;;;;14.37;10.07;;;;;1.00;100364.00;;;;10514355;28;20209;-81
2021/11/29 07:34:26;;;;;;;12.97;9.20;;;;;1.00;100371.00;;;;10494756;28;20217;-81
2021/11/29 07:39:36;;;;;;;15.43;8.70;;;;;0.90;100379.00;;;;10497022;28;20189;-80
2021/11/29 07:44:39;;;;;;;13.97;8.07;;;;;0.90;100386.00;;;;10458145;28;20217;-80
2021/11/29 07:49:42;;;;;;;14.63;9.07;;;;;0.90;100386.00;;;;10474236;28;20246;-81
2021/11/29 07:54:45;;;;;;;14.60;9.77;;;;;0.90;100393.00;;;;10457634;28;20267;-80
2021/11/29 07:59:46;;;;;;;12.87;8.53;;;;;1.00;100397.00;;;;10487761;28;20197;-81
2021/11/29 08:04:54;;;;;;;10.40;7.67;;;;;1.00;100400.00;;;;10454584;28;20253;-81
2021/11/29 08:09:55;;;;;;;12.43;8.70;;;;;1.10;100410.00;;;;10475800;28;20656;-81
2021/11/29 08:14:57;;;;;;;9.43;7.30;;;;;1.30;100429.00;;;;10478525;28;20267;-81
2021/11/29 08:20:00;;;;;;;10.90;7.43;;;;;1.40;100454.00;;;;10489614;28;20197;-81
2021/11/29 08:25:02;;;;;;;14.33;8.53;;;;;1.50;100440.00;;;;10490002;28;20227;-80
2021/11/29 08:30:08;;;;;;;10.67;6.43;;;;;1.50;100443.00;;;;10489831;28;20251;-80
2021/11/29 08:35:12;;;;;;;11.30;7.50;;;;;2.00;100442.00;;;;10485290;28;20220;-80
2021/11/29 08:40:25;;;;;;;12.63;8.10;;;;;2.40;100452.00;;;;10448251;28;20212;-81
2021/11/29 08:45:28;;;;;;;10.80;8.37;;;;;2.70;100471.00;;;;10505043;28;20238;-81
2021/11/29 08:50:31;;;;;;;19.93;10.43;;;;;3.40;100492.00;;;;10472232;28;20207;-81
2021/11/29 08:55:35;;;;;;;14.80;9.47;;;;;3.90;100502.00;;;;10487737;28;20224;-81
2021/11/29 09:00:40;;;;;;;11.27;8.13;;;;;3.70;100508.00;;;;10488463;28;20652;-82
2021/11/29 09:05:45;;;;;;;13.10;7.20;;;;;3.70;100514.00;;;;10485699;28;20564;-81
2021/11/29 09:10:49;;;;;;;9.07;5.23;;;;;3.30;100518.00;;;;10491485;28;20200;-81
2021/11/29 09:16:13;;;;;;;8.00;5.50;;;;;3.10;100510.00;;;;10490341;28;20297;-81
2021/11/29 09:21:18;;;;;;;10.30;5.60;;;;;3.00;100498.00;;;;10475314;28;20571;-81
2021/11/29 09:26:21;;;;;;;6.23;5.63;;;;;3.40;100509.00;;;;10449823;28;20194;-81
2021/11/29 09:31:24;;;;;;;7.00;5.43;;;;;3.90;100511.00;;;;10449420;28;20688;-81
2021/11/29 09:36:26;;;;;;;9.10;5.70;;;;;4.30;100516.00;;;;10466324;28;20295;-80
2021/11/29 09:41:28;;;;;;;10.50;6.83;;;;;4.80;100519.00;;;;10455376;28;20691;-81
2021/11/29 09:46:31;;;;;;;6.53;5.53;;;;;4.50;100535.00;;;;10446239;28;20232;-81
2021/11/29 09:51:36;;;;;;;6.63;4.97;;;;;4.00;100540.00;;;;10478040;28;20197;-81
2021/11/29 09:56:38;;;;;;;8.83;5.00;;;;;3.90;100549.00;;;;10494257;28;20212;-82
2021/11/29 10:01:40;;;;;;;6.70;5.10;;;;;4.30;100547.00;;;;10508282;28;20666;-82
2021/11/29 10:06:48;;;;;;;11.90;5.67;;;;;5.00;100559.00;;;;10454229;28;20236;-82
2021/11/29 10:11:50;;;;;;;10.33;5.50;;;;;5.50;100564.00;;;;10433932;28;20583;-81
2021/11/29 10:16:59;;;;;;;7.63;4.50;;;;;6.00;100560.00;;;;10492156;28;20216;-81
2021/11/29 10:22:19;;;;;;;10.47;4.70;;;;;5.30;100566.00;;;;10493103;28;20192;-81
2021/11/29 10:27:39;;;;;;;12.03;3.47;;;;;4.90;100553.00;;;;10500375;28;20214;-81
2021/11/29 10:32:44;;;;;;;9.43;4.07;;;;;5.00;100550.00;;;;10474684;28;20854;-81
2021/11/29 10:37:48;;;;;;;13.17;4.40;;;;;5.70;100550.00;;;;10475275;28;20202;-81
2021/11/29 10:43:07;;;;;;;6.60;3.87;;;;;6.10;100548.00;;;;10503013;28;20201;-80
2021/11/29 10:48:25;;;;;;;9.97;3.93;;;;;6.50;100547.00;;;;10468774;28;20230;-81
2021/11/29 10:53:27;;;;;;;14.03;3.90;;;;;6.70;100547.00;;;;10467132;28;20225;-80
2021/11/29 10:58:43;;;;;;;9.57;3.00;;;;;6.90;100550.00;;;;10480382;28;20284;-81
2021/11/29 11:03:56;;;;;;;17.77;3.70;;;;;7.10;100559.00;;;;10503616;28;20211;-81
2021/11/29 11:08:59;;;;;;;9.00;3.00;;;;;7.20;100552.00;;;;10486710;28;20208;-81
2021/11/29 11:14:08;;;;;;;5.40;3.00;;;;;7.20;100548.00;;;;10482528;28;20280;-81
2021/11/29 11:19:31;;;;;;;7.03;2.80;;;;;7.40;100551.00;;;;10492730;28;20261;-80
2021/11/29 11:24:35;;;;;;;9.23;2.77;;;;;7.60;100556.00;;;;10517745;28;20196;-81
2021/11/29 11:29:51;;;;;;;6.13;2.70;;;;;7.80;100544.00;;;;10548476;28;20192;-81
2021/11/29 11:35:02;;;;;;;9.43;2.27;;;;;7.90;100550.00;;;;10488925;28;20315;-81
2021/11/29 11:40:07;;;;;;;10.07;2.67;;;;;8.00;100539.00;;;;10483011;28;20243;-80
2021/11/29 11:45:12;;;;;;;7.87;2.03;;;;;8.10;100549.00;;;;10489646;28;20725;-80
2021/11/29 11:50:17;;;;;;;10.03;2.93;;;;;8.00;100541.00;;;;10483507;28;20201;-80
2021/11/29 11:55:24;;;;;;;9.77;3.23;;;;;7.90;100524.00;;;;10508101;28;20260;-80
2021/11/29 12:01:08;;;;;;;10.93;3.63;;;;;7.80;100547.00;;;;10524735;28;20205;-80
2021/11/29 12:06:15;;;;;;;10.13;3.27;;;;;7.80;100542.00;;;;10478818;28;20854;-80
2021/11/29 12:11:25;;;;;;;7.13;2.57;;;;;7.80;100546.00;;;;10448194;28;20239;-80
2021/11/29 12:17:00;;;;;;;12.77;3.80;;;;;7.90;100547.00;;;;10488499;28;20227;-80
2021/11/29 12:22:28;;;;;;;14.73;3.37;;;;;8.00;100553.00;;;;10456059;28;20189;-80
2021/11/29 12:27:43;;;;;;;12.93;3.77;;;;;8.50;100548.00;;;;10483281;28;20201;-79
2021/11/29 12:32:53;;;;;;;13.73;3.43;;;;;8.70;100542.00;;;;10500692;27;20269;-81
2021/11/29 12:38:08;;;;;;;8.63;3.03;;;;;8.70;100542.00;;;;10493332;28;20243;-80
2021/11/29 12:43:10;;;;;;;6.80;2.20;;;;;8.20;100559.00;;;;10454313;28;20207;-81
2021/11/29 12:48:14;;;;;;;9.40;3.13;;;;;7.90;100560.00;;;;10470343;28;20197;-79
2021/11/29 12:53:32;;;;;;;8.67;3.00;;;;;8.10;100566.00;;;;10463343;28;20225;-79
2021/11/29 12:58:36;;;;;;;11.83;3.90;;;;;8.80;100563.00;;;;10502434;28;20199;-79
2021/11/29 13:03:50;;;;;;;12.60;4.47;;;;;8.70;100573.00;;;;10474418;28;20753;-79
2021/11/29 13:08:59;;;;;;;15.70;4.13;;;;;8.50;100576.00;;;;10485235;28;20209;-79
2021/11/29 13:14:21;;;;;;;12.20;3.90;;;;;8.40;100578.00;;;;10497138;28;20224;-79
2021/11/29 13:19:38;;;;;;;10.33;3.00;;;;;8.30;100571.00;;;;10483409;28;20287;-79
2021/11/29 13:24:47;;;;;;;7.27;2.40;;;;;8.40;100576.00;;;;10480530;28;20204;-78
2021/11/29 13:29:58;;;;;;;10.53;2.50;;;;;7.90;100590.00;;;;10503030;28;20211;-79
2021/11/29 13:35:03;;;;;;;6.73;1.80;;;;;7.80;100590.00;;;;10501242;28;20223;-79
2021/11/29 13:40:32;;;;;;;12.83;2.60;;;;;7.70;100590.00;;;;10476991;28;20211;-78
2021/11/29 13:45:37;;;;;;;8.07;2.10;;;;;7.20;100599.00;;;;10482964;28;20205;-78
2021/11/29 13:50:41;;;;;;;8.73;2.70;;;;;6.70;100607.00;;;;10484145;28;20211;-79
2021/11/29 13:55:48;;;;;;;8.07;3.07;;;;;6.50;100609.00;;;;10493169;28;20286;-79
2021/11/29 14:01:10;;;;;;;8.77;2.23;;;;;6.30;100621.00;;;;10493514;28;20613;-78
2021/11/29 14:06:22;;;;;;;13.67;2.63;;;;;6.20;100620.00;;;;10521070;28;20230;-79
2021/11/29 14:11:24;;;;;;;9.70;3.00;;;;;6.20;100634.00;;;;10469433;28;20232;-78
2021/11/29 14:16:36;;;;;;;7.00;2.93;;;;;6.40;100635.00;;;;10461718;28;20217;-78
2021/11/29 14:21:42;;;;;;;7.00;2.80;;;;;6.40;100625.00;;;;10492629;28;20203;-79
2021/11/29 14:26:49;;;;;;;7.93;2.57;;;;;6.50;100623.00;;;;10508642;28;20220;-79
2021/11/29 14:32:01;;;;;;;9.50;2.40;;;;;6.70;100627.00;;;;10490952;28;20248;-79
2021/11/29 14:37:09;;;;;;;9.37;2.30;;;;;6.90;100629.00;;;;10480630;28;20208;-78
2021/11/29 14:42:14;;;;;;;11.07;3.47;;;;;6.90;100643.00;;;;10491571;28;20652;-79
2021/11/29 14:47:32;;;;;;;10.63;3.00;;;;;6.80;100646.00;;;;10464659;28;20216;-79
2021/11/29 14:52:36;;;;;;;7.73;2.47;;;;;6.70;100655.00;;;;10466666;28;20197;-79
2021/11/29 14:57:53;;;;;;;13.37;2.93;;;;;6.40;100657.00;;;;10482588;28;20217;-79
2021/11/29 15:03:02;;;;;;;7.70;1.90;;;;;6.10;100667.00;;;;10475632;28;20201;-80
2021/11/29 15:08:21;;;;;;;6.00;2.20;;;;;5.80;100679.00;;;;10487449;28;20236;-79
2021/11/29 15:13:40;;;;;;;7.13;2.23;;;;;5.60;100688.00;;;;10542477;27;20196;-79
2021/11/29 15:18:42;;;;;;;6.90;2.30;;;;;5.30;100692.00;;;;10461685;28;20204;-79
2021/11/29 15:23:44;;;;;;;8.37;2.50;;;;;5.20;100701.00;;;;10504273;27;20269;-80
2021/11/29 15:28:46;;;;;;;8.33;2.27;;;;;5.00;100713.00;;;;10501092;28;20194;-79
2021/11/29 15:34:00;;;;;;;3.73;2.07;;;;;4.90;100720.00;;;;10520684;28;20227;-79
2021/11/29 15:39:04;;;;;;;7.67;2.00;;;;;4.90;100718.00;;;;10499049;28;20247;-79
2021/11/29 15:44:13;;;;;;;3.73;1.57;;;;;4.80;100731.00;;;;10494952;27;20227;-80
2021/11/29 15:49:19;;;;;;;10.07;1.77;;;;;4.70;100746.00;;;;10480987;28;20297;-80
2021/11/29 15:54:21;;;;;;;7.07;1.93;;;;;4.60;100740.00;;;;10479843;28;20680;-78
2021/11/29 15:59:24;;;;;;;2.67;1.07;;;;;4.60;100763.00;;;;10492257;28;20207;-78
2021/11/29 16:04:26;;;;;;;4.77;1.23;;;;;4.50;100771.00;;;;10490426;28;20196;-79
2021/11/29 16:09:28;;;;;;;4.93;1.10;;;;;4.50;100767.00;;;;10482314;28;20204;-79
2021/11/29 16:14:30;;;;;;;4.77;1.70;;;;;4.50;100769.00;;;;10460136;28;20221;-78
2021/11/29 16:19:32;;;;;;;1.67;1.27;;;;;4.50;100778.00;;;;10459641;28;20455;-78
2021/11/29 16:24:34;;;;;;;4.40;1.60;;;;;4.50;100787.00;;;;10457639;28;21031;-79
2021/11/29 16:29:35;;;;;;;2.73;1.37;;;;;4.50;100780.00;;;;10487167;28;20242;-78
2021/11/29 16:34:41;;;;;;;4.67;1.30;;;;;4.50;100807.00;;;;10490197;28;20227;-78
2021/11/29 16:39:57;;;;;;;3.03;1.70;;;;;4.50;100813.00;;;;10453713;28;20203;-79
2021/11/29 16:45:00;;;;;;;3.63;1.50;;;;;4.50;100802.00;;;;10513965;28;20195;-79
2021/11/29 16:50:03;;;;;;;2.57;1.53;;;;;4.50;100814.00;;;;10459422;28;20223;-79
2021/11/29 16:55:07;;;;;;;5.17;2.13;;;;;4.50;100815.00;;;;10456990;28;20275;-78
2021/11/29 17:00:15;;;;;;;6.23;1.93;;;;;4.50;100831.00;;;;10445500;28;20573;-79
2021/11/29 17:05:19;;;;;;;5.27;2.27;;;;;4.40;100824.00;;;;10484034;28;20204;-79
2021/11/29 17:10:23;;;;;;;5.83;2.47;;;;;4.40;100834.00;;;;10497897;28;20204;-78
2021/11/29 17:15:24;;;;;;;3.40;1.63;;;;;4.30;100835.00;;;;10482203;28;20738;-78
2021/11/29 17:20:27;;;;;;;4.40;2.50;;;;;4.20;100852.00;;;;10458295;28;20296;-80
2021/11/29 17:25:29;;;;;;;6.60;3.50;;;;;4.10;100837.00;;;;10463684;28;20537;-79
2021/11/29 17:30:31;;;;;;;13.07;3.97;;;;;4.20;100844.00;;;;10482553;28;20205;-79
2021/11/29 17:35:34;;;;;;;9.83;4.20;;;;;4.20;100848.00;;;;10479322;28;20229;-79
2021/11/29 17:40:37;;;;;;;6.93;4.20;;;;;4.30;100847.00;;;;10474828;28;20196;-79
2021/11/29 17:45:39;;;;;;;13.93;4.90;;;;;4.30;100852.00;;;;10471856;28;20193;-79
2021/11/29 17:50:42;;;;;;;7.17;4.40;;;;;4.30;100860.00;;;;10472854;28;20534;-79
2021/11/29 17:55:52;;;;;;;10.67;4.10;;;;;4.30;100867.00;;;;10497544;28;20636;-80
2021/11/29 18:00:54;;;;;;;11.13;4.17;;;;;4.30;100874.00;;;;10495279;28;20955;-80
2021/11/29 18:05:59;;;;;;;10.03;4.03;;;;;4.40;100873.00;;;;10479346;28;20939;-79
2021/11/29 18:16:27;;;;;;;13.07;4.07;;;;;4.40;100890.00;;;;10493582;28;20270;-79
2021/11/29 18:21:30;;;;;;;11.27;4.17;;;;;4.40;100888.00;;;;10471343;28;20214;-79
2021/11/29 18:26:35;;;;;;;7.93;3.33;;;;;4.30;100884.00;;;;10482979;28;20197;-78
2021/11/29 18:31:38;;;;;;;7.70;3.50;;;;;4.30;100885.00;;;;10497150;28;20718;-79
2021/11/29 18:36:45;;;;;;;8.17;3.33;;;;;4.30;100892.00;;;;10483245;28;20213;-79
2021/11/29 18:41:49;;;;;;;5.90;3.77;;;;;4.30;100890.00;;;;10479447;28;20258;-79
2021/11/29 18:46:51;;;;;;;8.13;3.60;;;;;4.20;100893.00;;;;10470675;28;20193;-79
2021/11/29 18:51:54;;;;;;;8.10;4.27;;;;;4.20;100888.00;;;;10479994;28;20197;-79
2021/11/29 18:56:56;;;;;;;14.93;4.57;;;;;4.10;100886.00;;;;10480187;28;20213;-78
2021/11/29 19:01:58;;;;;;;12.27;4.17;;;;;4.10;100893.00;;;;10492013;28;20275;-78
2021/11/29 19:07:00;;;;;;;10.50;4.50;;;;;4.00;100881.00;;;;10446247;28;20206;-79
2021/11/29 19:12:02;;;;;;;10.80;4.80;;;;;3.90;100897.00;;;;10505203;28;20566;-78
2021/11/29 19:17:04;;;;;;;11.40;4.87;;;;;3.90;100897.00;;;;10505478;28;20212;-79
2021/11/29 19:22:06;;;;;;;12.10;5.43;;;;;3.80;100901.00;;;;10471932;28;20193;-78
2021/11/29 19:27:08;;;;;;;9.30;4.73;;;;;3.70;100892.00;;;;10483386;28;20851;-78
2021/11/29 19:32:10;;;;;;;20.23;5.90;;;;;3.70;100897.00;;;;10470391;28;20252;-78
2021/11/29 19:37:12;;;;;;;11.00;5.30;;;;;3.70;100890.00;;;;10454139;28;20368;-79
2021/11/29 19:42:15;;;;;;;15.83;5.63;;;;;3.70;100900.00;;;;10503749;28;20761;-79
2021/11/29 19:47:18;;;;;;;13.43;6.40;;;;;3.70;100901.00;;;;10447029;28;20208;-79
2021/11/29 19:52:20;;;;;;;11.43;6.87;;;;;3.70;100910.00;;;;10471816;28;20209;-78
2021/11/29 19:57:23;;;;;;;16.40;6.50;;;;;3.60;100902.00;;;;10496057;28;20210;-79
2021/11/29 20:02:24;;;;;;;9.77;6.27;;;;;3.50;100907.00;;;;10479233;28;20322;-78
2021/11/29 20:07:47;;;;;;;13.93;6.67;;;;;3.50;100909.00;;;;10488691;28;20197;-78
2021/11/29 20:12:49;;;;;;;10.07;6.87;;;;;3.50;100906.00;;;;10521515;28;20192;-78
2021/11/29 20:17:52;;;;;;;16.17;7.10;;;;;3.50;100893.00;;;;10471647;27;20676;-79
2021/11/29 20:22:54;;;;;;;14.50;7.57;;;;;3.50;100902.00;;;;10472138;28;20219;-78
2021/11/29 20:27:56;;;;;;;12.33;6.90;;;;;3.40;100898.00;;;;10473716;28;20266;-79
2021/11/29 20:32:58;;;;;;;11.97;7.13;;;;;3.40;100898.00;;;;10486791;28;20212;-79
2021/11/29 20:38:00;;;;;;;12.70;8.47;;;;;3.20;100902.00;;;;10477754;28;20270;-79
2021/11/29 20:43:05;;;;;;;15.60;8.20;;;;;3.20;100901.00;;;;10497208;28;20310;-79
2021/11/29 20:48:07;;;;;;;15.67;7.87;;;;;3.10;100903.00;;;;10485430;28;20690;-78
2021/11/29 20:53:09;;;;;;;33.23;9.90;;;;;3.10;100899.00;;;;10505918;27;20205;-78
2021/11/29 20:58:11;;;;;;;15.03;8.70;;;;;3.00;100884.00;;;;10464812;28;20224;-79
2021/11/29 21:03:13;;;;;;;14.63;8.67;;;;;2.90;100878.00;;;;10485037;28;20209;-79
2021/11/29 21:08:15;;;;;;;13.93;8.43;;;;;2.90;100884.00;;;;10510580;28;20196;-79
2021/11/29 21:13:21;;;;;;;12.40;7.67;;;;;2.80;100886.00;;;;10463710;28;20200;-78
2021/11/29 21:18:24;;;;;;;13.37;8.43;;;;;2.80;100899.00;;;;10470105;28;20220;-80
2021/11/29 21:23:40;;;;;;;14.10;7.40;;;;;2.80;100904.00;;;;10497363;28;20192;-79
2021/11/29 21:28:48;;;;;;;18.47;8.23;;;;;2.70;100893.00;;;;10495271;28;20232;-78
2021/11/29 21:33:50;;;;;;;11.80;7.83;;;;;2.60;100883.00;;;;10464627;28;20232;-78
2021/11/29 21:38:52;;;;;;;13.43;7.73;;;;;2.60;100898.00;;;;10470035;28;20216;-79
2021/11/29 21:43:56;;;;;;;16.70;7.67;;;;;2.60;100892.00;;;;10503128;28;20203;-79
2021/11/29 21:48:58;;;;;;;12.70;7.13;;;;;2.50;100878.00;;;;10477850;28;20247;-78
2021/11/29 21:54:00;;;;;;;13.00;7.77;;;;;2.40;100885.00;;;;10473275;28;20231;-78
2021/11/29 21:59:05;;;;;;;14.70;7.63;;;;;2.40;100883.00;;;;10471140;28;20747;-77
2021/11/29 22:04:07;;;;;;;16.07;7.57;;;;;2.40;100884.00;;;;10487374;28;20204;-77
2021/11/29 22:09:10;;;;;;;13.93;8.47;;;;;2.40;100886.00;;;;10499332;28;20309;-78
2021/11/29 22:14:12;;;;;;;12.93;8.23;;;;;2.50;100878.00;;;;10497204;28;20205;-78
2021/11/29 22:19:14;;;;;;;16.70;8.90;;;;;2.60;100891.00;;;;10475881;28;20679;-78
2021/11/29 22:24:16;;;;;;;14.77;9.10;;;;;2.70;100895.00;;;;10485288;28;20198;-78
2021/11/29 22:29:18;;;;;;;15.13;8.87;;;;;2.90;100884.00;;;;10507353;27;20216;-78
2021/11/29 22:34:20;;;;;;;15.40;8.50;;;;;2.90;100885.00;;;;10494078;28;20235;-78
2021/11/29 22:39:23;;;;;;;20.07;8.93;;;;;3.00;100872.00;;;;10486581;28;20217;-78
2021/11/29 22:44:24;;;;;;;16.27;9.30;;;;;3.00;100874.00;;;;10485353;28;20209;-79
2021/11/29 22:49:27;;;;;;;15.47;8.70;;;;;3.10;100857.00;;;;10487323;28;20197;-78
2021/11/29 22:54:29;;;;;;;16.20;7.67;;;;;3.20;100864.00;;;;10441052;28;20202;-78
2021/11/29 22:59:31;;;;;;;13.97;8.70;;;;;3.20;100865.00;;;;10489957;28;20200;-78
2021/11/29 23:04:33;;;;;;;16.13;8.40;;;;;3.20;100873.00;;;;10502694;28;20192;-78
2021/11/29 23:09:35;;;;;;;20.70;8.53;;;;;3.30;100861.00;;;;10488505;28;20307;-78
2021/11/29 23:14:37;;;;;;;16.87;7.90;;;;;3.30;100867.00;;;;10494536;28;20598;-78
2021/11/29 23:19:40;;;;;;;15.20;7.23;;;;;3.30;100861.00;;;;10464300;28;20186;-78
2021/11/29 23:24:42;;;;;;;13.57;7.10;;;;;3.30;100874.00;;;;10444766;28;20279;-78
2021/11/29 23:29:44;;;;;;;18.67;8.53;;;;;3.30;100857.00;;;;10462379;28;20201;-78
2021/11/29 23:34:47;;;;;;;14.23;6.60;;;;;3.40;100849.00;;;;10482781;28;20688;-78
2021/11/29 23:39:48;;;;;;;18.17;7.27;;;;;3.40;100825.00;;;;10453817;28;20227;-78
2021/11/29 23:44:50;;;;;;;20.40;7.43;;;;;3.40;100830.00;;;;10486201;28;20204;-77
2021/11/29 23:50:04;;;;;;;10.23;6.20;;;;;3.40;100820.00;;;;10490044;28;20189;-78
2021/11/29 23:55:08;;;;;;;14.53;6.37;;;;;3.40;100822.00;;;;10480752;28;20216;-78
